Warsaw, IN

9:43 PM EST on February 13, 2016 (GMT -0500)
Warsaw Municipal | | Change Station
CLOSE
Current Station
Airport
Location: Warsaw,
Elevation: 850 ft
Nearby Weather Stations

Elev 850 ft 41.27 °N, 85.84 °W | Updated 8 minutes ago

Overcast
Overcast
9 °F
Feels Like 9 °F
N
0
Wind Variable Wind from North

Today
High -- | Low -- °F
--% Chance of Precip.
Yesterday
High -- | Low -- °F
Precip. -- in
Pressure 30.48 in
Visibility 10.0 miles
Clouds Overcast 2900 ft
Dew Point 1 °F
Humidity 73%
Rainfall 0.00 in
Snow Depth Not available.
7:41 AM 6:14 PM
Waxing Crescent, 36% visible
METAR KASW 140235Z AUTO 00000KT 10SM OVC029 M13/M17 A3048 RMK AO2
Pressure 30.48 in
Visibility 10.0 miles
Clouds Overcast 2900 ft
Dew Point 1 °F
Humidity 73%
Rainfall 0.00 in
Snow Depth Not available.
7:41 AM 6:14 PM
Waxing Crescent, 36% visible
METAR KASW 140235Z AUTO 00000KT 10SM OVC029 M13/M17 A3048 RMK AO2

10-Day Weather Forecast

Almanac

Astronomy

Feb. 13, 2016 Rise Set
Actual Time
Civil Twilight
Nautical Twilight
Astronomical Twilight
Moon
Length of Visible Light
Length of Day
Tomorrow will be .
, % of the Moon is Illuminated

Today's Extremes

State Highs State Lows

Community

WunderPhotos

Upload Photos

1,892,731 photos uploaded!

WunderBlog® & News

Nearby

Air Quality

  Air Quality AQ Index Pollutant
Not available.

Snow Depth

Station Depth Elevation

Earthquake Activity

City Distance Mag. Time & Date
Minimum magnitude displayed is 2.5.

Coastal Water Temperatures

Place Temperature

Stations

Nearby Weather Stations

Station Location Temp. Windchill Dew Point Humidity Wind Precip. Elev Updated Type
                   

Watches & Warnings

There are currently no watches in effect.